Terminal Aerodrome Forecast
Issued by NWS

Home | Current Version | Previous Version | Text Only | Print | Product List | Glossary On
Versions: 1 2 3 4 5 6 7 8 9 10 11 12 13 14 15 16 17 18 19 20 21 22 23 24 25 26 27 28 29
000
FTUS43 KLSX 182300
TAFSUS
TAF
KSUS 182340Z 1900/1924 VRB04KT P6SM SCT040
     FM190100 VRB03KT P6SM SKC
      TEMPO 1909/1912 5SM BR
     FM191200 VRB04KT P6SM BKN120
     FM191500 21009KT P6SM SCT030 BKN120
     FM192100 25012KT P6SM SCT040 BKN250=

USA.gov is the U.S. government's official web portal to all federal, state and local government web resources and services.